sensor_id;sensor_type;location;lat;lon;timestamp;pressure;altitude;pressure_sealevel;temperature;humidity
54122;BME280;40029;58.708;50.190;2024-03-02T00:02:01;101447.78;;;-1.46;83.91
54122;BME280;40029;58.708;50.190;2024-03-02T00:04:32;101449.56;;;-1.45;84.29
54122;BME280;40029;58.708;50.190;2024-03-02T00:07:04;101446.91;;;-1.46;84.36
54122;BME280;40029;58.708;50.190;2024-03-02T00:09:35;101446.22;;;-1.41;84.29
54122;BME280;40029;58.708;50.190;2024-03-02T00:12:07;101447.22;;;-1.37;84.01
54122;BME280;40029;58.708;50.190;2024-03-02T00:14:38;101447.22;;;-1.37;83.85
54122;BME280;40029;58.708;50.190;2024-03-02T00:17:19;101442.88;;;-1.38;83.91
54122;BME280;40029;58.708;50.190;2024-03-02T00:19:52;101443.69;;;-1.39;83.73
54122;BME280;40029;58.708;50.190;2024-03-02T00:22:23;101436.69;;;-1.42;83.85
54122;BME280;40029;58.708;50.190;2024-03-02T00:24:54;101440.94;;;-1.44;84.33
54122;BME280;40029;58.708;50.190;2024-03-02T00:27:25;101446.09;;;-1.45;84.29
54122;BME280;40029;58.708;50.190;2024-03-02T00:29:57;101443.50;;;-1.45;84.35
54122;BME280;40029;58.708;50.190;2024-03-02T00:32:35;101452.69;;;-1.53;84.44
54122;BME280;40029;58.708;50.190;2024-03-02T00:35:06;101446.53;;;-1.57;84.13
54122;BME280;40029;58.708;50.190;2024-03-02T00:37:37;101448.03;;;-1.64;84.73
54122;BME280;40029;58.708;50.190;2024-03-02T00:40:28;101444.47;;;-1.67;84.90
54122;BME280;40029;58.708;50.190;2024-03-02T00:43:01;101446.16;;;-1.68;84.93
54122;BME280;40029;58.708;50.190;2024-03-02T00:45:35;101444.53;;;-1.66;84.49
54122;BME280;40029;58.708;50.190;2024-03-02T00:48:24;101440.97;;;-1.68;85.14
54122;BME280;40029;58.708;50.190;2024-03-02T00:50:55;101444.41;;;-1.69;84.99
54122;BME280;40029;58.708;50.190;2024-03-02T00:53:27;101442.75;;;-1.67;84.92
54122;BME280;40029;58.708;50.190;2024-03-02T00:55:59;101439.88;;;-1.75;84.62
54122;BME280;40029;58.708;50.190;2024-03-02T00:58:52;101436.09;;;-1.84;85.09
54122;BME280;40029;58.708;50.190;2024-03-02T01:01:23;101431.94;;;-1.79;85.27
54122;BME280;40029;58.708;50.190;2024-03-02T01:03:54;101430.28;;;-1.77;85.31
54122;BME280;40029;58.708;50.190;2024-03-02T01:06:25;101439.69;;;-1.81;85.13
54122;BME280;40029;58.708;50.190;2024-03-02T01:09:15;101429.13;;;-1.85;85.38
54122;BME280;40029;58.708;50.190;2024-03-02T01:11:48;101428.41;;;-1.81;85.42
54122;BME280;40029;58.708;50.190;2024-03-02T01:14:19;101430.31;;;-1.76;85.32
54122;BME280;40029;58.708;50.190;2024-03-02T01:16:51;101434.75;;;-1.73;85.37
54122;BME280;40029;58.708;50.190;2024-03-02T01:19:22;101435.63;;;-1.72;85.17
54122;BME280;40029;58.708;50.190;2024-03-02T01:21:53;101437.34;;;-1.73;84.73
54122;BME280;40029;58.708;50.190;2024-03-02T01:24:24;101445.34;;;-1.67;85.03
54122;BME280;40029;58.708;50.190;2024-03-02T01:26:56;101433.09;;;-1.71;84.31
54122;BME280;40029;58.708;50.190;2024-03-02T01:29:45;101437.44;;;-1.70;84.76
54122;BME280;40029;58.708;50.190;2024-03-02T01:32:16;101439.09;;;-1.72;84.46
54122;BME280;40029;58.708;50.190;2024-03-02T01:34:47;101445.94;;;-1.74;84.53
54122;BME280;40029;58.708;50.190;2024-03-02T01:37:19;101445.81;;;-1.77;84.69
54122;BME280;40029;58.708;50.190;2024-03-02T01:39:50;101447.59;;;-1.76;84.73
54122;BME280;40029;58.708;50.190;2024-03-02T01:42:21;101446.56;;;-1.81;84.75
54122;BME280;40029;58.708;50.190;2024-03-02T01:44:53;101445.88;;;-1.76;84.74
54122;BME280;40029;58.708;50.190;2024-03-02T01:47:24;101454.66;;;-1.72;84.45
54122;BME280;40029;58.708;50.190;2024-03-02T01:49:55;101456.38;;;-1.72;84.64
54122;BME280;40029;58.708;50.190;2024-03-02T01:52:27;101458.19;;;-1.70;84.40
54122;BME280;40029;58.708;50.190;2024-03-02T01:54:58;101456.53;;;-1.68;84.35
54122;BME280;40029;58.708;50.190;2024-03-02T01:57:29;101457.16;;;-1.75;84.64
54122;BME280;40029;58.708;50.190;2024-03-02T02:00:01;101470.13;;;-1.75;84.49
54122;BME280;40029;58.708;50.190;2024-03-02T02:02:53;101465.03;;;-1.72;84.36
54122;BME280;40029;58.708;50.190;2024-03-02T02:05:24;101468.56;;;-1.70;84.14
54122;BME280;40029;58.708;50.190;2024-03-02T02:08:15;101473.75;;;-1.70;84.06
54122;BME280;40029;58.708;50.190;2024-03-02T02:10:46;101474.66;;;-1.69;84.29
54122;BME280;40029;58.708;50.190;2024-03-02T02:13:36;101473.88;;;-1.67;84.52
54122;BME280;40029;58.708;50.190;2024-03-02T02:16:07;101477.28;;;-1.68;84.29
54122;BME280;40029;58.708;50.190;2024-03-02T02:18:39;101478.84;;;-1.73;83.81
54122;BME280;40029;58.708;50.190;2024-03-02T02:21:10;101478.06;;;-1.70;84.02
54122;BME280;40029;58.708;50.190;2024-03-02T02:23:41;101472.00;;;-1.71;83.82
54122;BME280;40029;58.708;50.190;2024-03-02T02:26:17;101472.66;;;-1.77;84.15
54122;BME280;40029;58.708;50.190;2024-03-02T02:28:48;101473.53;;;-1.76;83.86
54122;BME280;40029;58.708;50.190;2024-03-02T02:31:20;101483.38;;;-1.91;84.25
54122;BME280;40029;58.708;50.190;2024-03-02T02:34:09;101480.06;;;-1.87;84.52
54122;BME280;40029;58.708;50.190;2024-03-02T02:36:41;101494.88;;;-1.83;84.32
54122;BME280;40029;58.708;50.190;2024-03-02T02:39:15;101492.41;;;-1.80;84.33
54122;BME280;40029;58.708;50.190;2024-03-02T02:41:48;101494.09;;;-1.82;84.14
54122;BME280;40029;58.708;50.190;2024-03-02T02:44:19;101487.22;;;-1.80;84.18
54122;BME280;40029;58.708;50.190;2024-03-02T02:46:50;101483.47;;;-1.88;83.79
54122;BME280;40029;58.708;50.190;2024-03-02T02:49:21;101485.38;;;-1.84;83.97
54122;BME280;40029;58.708;50.190;2024-03-02T02:52:11;101488.66;;;-1.88;83.94
54122;BME280;40029;58.708;50.190;2024-03-02T02:54:42;101485.13;;;-1.90;84.38
54122;BME280;40029;58.708;50.190;2024-03-02T02:57:13;101481.25;;;-2.02;84.38
54122;BME280;40029;58.708;50.190;2024-03-02T02:59:44;101486.44;;;-2.02;85.03
54122;BME280;40029;58.708;50.190;2024-03-02T03:02:15;101484.06;;;-1.96;84.37
54122;BME280;40029;58.708;50.190;2024-03-02T03:04:47;101486.13;;;-1.87;84.37
54122;BME280;40029;58.708;50.190;2024-03-02T03:07:38;101487.91;;;-1.86;83.86
54122;BME280;40029;58.708;50.190;2024-03-02T03:10:28;101493.16;;;-1.84;84.03
54122;BME280;40029;58.708;50.190;2024-03-02T03:13:00;101496.72;;;-1.81;84.19
54122;BME280;40029;58.708;50.190;2024-03-02T03:15:31;101497.53;;;-1.82;84.15
54122;BME280;40029;58.708;50.190;2024-03-02T03:18:20;101506.44;;;-1.75;83.84
54122;BME280;40029;58.708;50.190;2024-03-02T03:21:10;101509.97;;;-1.73;83.78
54122;BME280;40029;58.708;50.190;2024-03-02T03:23:41;101507.31;;;-1.75;83.98
54122;BME280;40029;58.708;50.190;2024-03-02T03:26:12;101508.19;;;-1.74;84.47
54122;BME280;40029;58.708;50.190;2024-03-02T03:28:44;101510.72;;;-1.76;84.25
54122;BME280;40029;58.708;50.190;2024-03-02T03:31:15;101512.63;;;-1.71;83.81
54122;BME280;40029;58.708;50.190;2024-03-02T03:33:46;101508.25;;;-1.72;83.90
54122;BME280;40029;58.708;50.190;2024-03-02T03:36:17;101514.22;;;-1.75;83.63
54122;BME280;40029;58.708;50.190;2024-03-02T03:38:49;101523.16;;;-1.67;83.87
54122;BME280;40029;58.708;50.190;2024-03-02T03:41:40;101517.84;;;-1.70;83.83
54122;BME280;40029;58.708;50.190;2024-03-02T03:44:11;101521.56;;;-1.63;83.90
54122;BME280;40029;58.708;50.190;2024-03-02T03:46:43;101525.03;;;-1.63;83.61
54122;BME280;40029;58.708;50.190;2024-03-02T03:49:14;101531.13;;;-1.61;83.33
54122;BME280;40029;58.708;50.190;2024-03-02T03:52:04;101534.84;;;-1.54;83.26
54122;BME280;40029;58.708;50.190;2024-03-02T03:54:35;101530.22;;;-1.63;83.37
54122;BME280;40029;58.708;50.190;2024-03-02T03:57:08;101534.66;;;-1.59;83.29
54122;BME280;40029;58.708;50.190;2024-03-02T03:59:39;101526.06;;;-1.58;83.17
54122;BME280;40029;58.708;50.190;2024-03-02T04:02:10;101523.28;;;-1.64;83.52
54122;BME280;40029;58.708;50.190;2024-03-02T04:04:43;101528.72;;;-1.56;83.29
54122;BME280;40029;58.708;50.190;2024-03-02T04:07:15;101521.22;;;-1.48;83.25
54122;BME280;40029;58.708;50.190;2024-03-02T04:09:46;101529.72;;;-1.52;82.92
54122;BME280;40029;58.708;50.190;2024-03-02T04:12:17;101531.59;;;-1.48;82.99
54122;BME280;40029;58.708;50.190;2024-03-02T04:14:48;101527.28;;;-1.48;83.16
54122;BME280;40029;58.708;50.190;2024-03-02T04:17:20;101527.28;;;-1.48;83.15
54122;BME280;40029;58.708;50.190;2024-03-02T04:20:10;101530.78;;;-1.47;82.48
54122;BME280;40029;58.708;50.190;2024-03-02T04:22:43;101529.84;;;-1.49;82.61
54122;BME280;40029;58.708;50.190;2024-03-02T04:25:14;101528.19;;;-1.47;82.85
54122;BME280;40029;58.708;50.190;2024-03-02T04:27:45;101536.91;;;-1.45;82.60
54122;BME280;40029;58.708;50.190;2024-03-02T04:30:35;101535.34;;;-1.40;82.78
54122;BME280;40029;58.708;50.190;2024-03-02T04:33:06;101534.44;;;-1.41;82.26
54122;BME280;40029;58.708;50.190;2024-03-02T04:35:40;101540.53;;;-1.40;82.13
54122;BME280;40029;58.708;50.190;2024-03-02T04:38:12;101538.75;;;-1.41;82.16
54122;BME280;40029;58.708;50.190;2024-03-02T04:40:44;101543.16;;;-1.39;82.58
54122;BME280;40029;58.708;50.190;2024-03-02T04:43:15;101551.00;;;-1.37;82.29
54122;BME280;40029;58.708;50.190;2024-03-02T04:45:47;101545.94;;;-1.34;82.06
54122;BME280;40029;58.708;50.190;2024-03-02T04:48:18;101546.94;;;-1.30;82.28
54122;BME280;40029;58.708;50.190;2024-03-02T04:50:50;101557.38;;;-1.29;82.61
54122;BME280;40029;58.708;50.190;2024-03-02T04:53:22;101554.00;;;-1.26;82.70
54122;BME280;40029;58.708;50.190;2024-03-02T04:55:53;101555.84;;;-1.22;82.08
54122;BME280;40029;58.708;50.190;2024-03-02T04:58:43;101557.59;;;-0.97;81.94
54122;BME280;40029;58.708;50.190;2024-03-02T05:01:14;101561.47;;;-1.10;81.88
54122;BME280;40029;58.708;50.190;2024-03-02T05:03:48;101561.69;;;-1.04;81.52
54122;BME280;40029;58.708;50.190;2024-03-02T05:06:20;101556.53;;;-1.02;81.82
54122;BME280;40029;58.708;50.190;2024-03-02T05:08:51;101560.13;;;-0.99;81.45
54122;BME280;40029;58.708;50.190;2024-03-02T05:11:22;101567.19;;;-0.94;81.11
54122;BME280;40029;58.708;50.190;2024-03-02T05:14:08;101570.69;;;-0.94;81.77
54122;BME280;40029;58.708;50.190;2024-03-02T05:16:39;101571.50;;;-0.95;81.78
54122;BME280;40029;58.708;50.190;2024-03-02T05:19:12;101573.59;;;-0.85;81.43
54122;BME280;40029;58.708;50.190;2024-03-02T05:21:43;101576.13;;;-0.86;81.73
54122;BME280;40029;58.708;50.190;2024-03-02T05:24:33;101574.31;;;-0.89;82.01
54122;BME280;40029;58.708;50.190;2024-03-02T05:27:04;101577.94;;;-0.84;81.78
54122;BME280;40029;58.708;50.190;2024-03-02T05:29:37;101584.31;;;-0.75;81.51
54122;BME280;40029;58.708;50.190;2024-03-02T05:32:08;101588.66;;;-0.74;81.06
54122;BME280;40029;58.708;50.190;2024-03-02T05:34:39;101581.53;;;-0.80;81.36
54122;BME280;40029;58.708;50.190;2024-03-02T05:37:10;101587.66;;;-0.78;80.96
54122;BME280;40029;58.708;50.190;2024-03-02T05:40:00;101592.41;;;-0.65;80.98
54122;BME280;40029;58.708;50.190;2024-03-02T05:42:31;101588.69;;;-0.73;81.32
54122;BME280;40029;58.708;50.190;2024-03-02T05:45:03;101588.84;;;-0.68;80.67
54122;BME280;40029;58.708;50.190;2024-03-02T05:47:34;101582.09;;;-0.63;80.18
54122;BME280;40029;58.708;50.190;2024-03-02T05:50:06;101575.38;;;-0.56;80.45
54122;BME280;40029;58.708;50.190;2024-03-02T05:52:37;101569.16;;;-0.62;80.25
54122;BME280;40029;58.708;50.190;2024-03-02T05:55:28;101565.28;;;-0.47;79.51
54122;BME280;40029;58.708;50.190;2024-03-02T05:57:59;101564.19;;;-0.54;80.13
54122;BME280;40029;58.708;50.190;2024-03-02T06:00:50;101565.44;;;-0.68;79.86
54122;BME280;40029;58.708;50.190;2024-03-02T06:03:21;101563.25;;;-0.83;80.86
54122;BME280;40029;58.708;50.190;2024-03-02T06:05:52;101562.72;;;-0.73;81.26
54122;BME280;40029;58.708;50.190;2024-03-02T06:08:24;101574.63;;;-0.80;81.15
54122;BME280;40029;58.708;50.190;2024-03-02T06:10:55;101571.75;;;-0.87;81.36
54122;BME280;40029;58.708;50.190;2024-03-02T06:13:27;101571.09;;;-0.82;81.08
54122;BME280;40029;58.708;50.190;2024-03-02T06:15:58;101575.66;;;-0.74;80.88
54122;BME280;40029;58.708;50.190;2024-03-02T06:18:47;101585.84;;;-0.81;81.19
54122;BME280;40029;58.708;50.190;2024-03-02T06:21:19;101582.72;;;-0.70;81.01
54122;BME280;40029;58.708;50.190;2024-03-02T06:23:51;101591.22;;;-0.49;80.49
54122;BME280;40029;58.708;50.190;2024-03-02T06:26:22;101585.97;;;-0.50;80.20
54122;BME280;40029;58.708;50.190;2024-03-02T06:28:53;101579.56;;;-0.34;79.92
54122;BME280;40029;58.708;50.190;2024-03-02T06:31:43;101585.53;;;-0.37;79.74
54122;BME280;40029;58.708;50.190;2024-03-02T06:34:14;101579.78;;;-0.27;79.80
54122;BME280;40029;58.708;50.190;2024-03-02T06:36:45;101589.78;;;-0.12;79.16
54122;BME280;40029;58.708;50.190;2024-03-02T06:39:35;101580.03;;;0.10;78.90
54122;BME280;40029;58.708;50.190;2024-03-02T06:42:07;101578.47;;;0.15;78.38
54122;BME280;40029;58.708;50.190;2024-03-02T06:44:38;101578.66;;;0.21;78.07
54122;BME280;40029;58.708;50.190;2024-03-02T06:47:09;101577.41;;;0.38;78.12
54122;BME280;40029;58.708;50.190;2024-03-02T06:49:40;101582.44;;;0.32;77.29
54122;BME280;40029;58.708;50.190;2024-03-02T06:52:11;101574.78;;;0.37;77.35
54122;BME280;40029;58.708;50.190;2024-03-02T06:54:42;101578.09;;;0.33;77.72
54122;BME280;40029;58.708;50.190;2024-03-02T06:57:13;101572.59;;;0.22;76.77
54122;BME280;40029;58.708;50.190;2024-03-02T06:59:44;101570.84;;;0.21;77.21
54122;BME280;40029;58.708;50.190;2024-03-02T07:02:15;101571.59;;;0.17;77.08
54122;BME280;40029;58.708;50.190;2024-03-02T07:04:46;101569.31;;;0.29;77.39
54122;BME280;40029;58.708;50.190;2024-03-02T07:07:18;101575.69;;;0.39;77.33
54122;BME280;40029;58.708;50.190;2024-03-02T07:09:49;101568.94;;;0.46;77.28
54122;BME280;40029;58.708;50.190;2024-03-02T07:12:20;101565.84;;;0.59;76.80
54122;BME280;40029;58.708;50.190;2024-03-02T07:14:51;101565.81;;;0.57;77.03
54122;BME280;40029;58.708;50.190;2024-03-02T07:17:37;101570.31;;;0.63;76.60
54122;BME280;40029;58.708;50.190;2024-03-02T07:20:08;101577.50;;;0.73;76.77
54122;BME280;40029;58.708;50.190;2024-03-02T07:22:40;101584.41;;;0.71;75.99
54122;BME280;40029;58.708;50.190;2024-03-02T07:25:29;101586.84;;;0.65;75.83
54122;BME280;40029;58.708;50.190;2024-03-02T07:28:00;101589.81;;;0.77;75.86
54122;BME280;40029;58.708;50.190;2024-03-02T07:30:32;101597.88;;;0.88;75.28
54122;BME280;40029;58.708;50.190;2024-03-02T07:33:04;101595.06;;;0.81;75.71
54122;BME280;40029;58.708;50.190;2024-03-02T07:35:54;101594.25;;;0.82;75.65
54122;BME280;40029;58.708;50.190;2024-03-02T07:38:27;101595.84;;;0.76;75.42
54122;BME280;40029;58.708;50.190;2024-03-02T07:40:58;101595.81;;;1.08;75.34
54122;BME280;40029;58.708;50.190;2024-03-02T07:43:30;101598.66;;;1.18;74.80
54122;BME280;40029;58.708;50.190;2024-03-02T07:46:03;101603.56;;;1.39;74.41
54122;BME280;40029;58.708;50.190;2024-03-02T07:48:35;101599.84;;;1.30;73.91
54122;BME280;40029;58.708;50.190;2024-03-02T07:51:06;101600.44;;;1.19;74.13
54122;BME280;40029;58.708;50.190;2024-03-02T07:53:37;101599.78;;;1.27;74.03
54122;BME280;40029;58.708;50.190;2024-03-02T07:56:08;101596.81;;;1.13;73.21
54122;BME280;40029;58.708;50.190;2024-03-02T07:58:40;101601.84;;;1.06;73.70
54122;BME280;40029;58.708;50.190;2024-03-02T08:01:12;101599.56;;;1.18;74.19
54122;BME280;40029;58.708;50.190;2024-03-02T08:03:44;101597.66;;;1.12;74.59
54122;BME280;40029;58.708;50.190;2024-03-02T08:06:20;101591.94;;;1.26;73.93
54122;BME280;40029;58.708;50.190;2024-03-02T08:09:11;101601.03;;;1.08;74.38
54122;BME280;40029;58.708;50.190;2024-03-02T08:11:42;101594.78;;;1.03;74.78
54122;BME280;40029;58.708;50.190;2024-03-02T08:14:13;101602.47;;;0.97;74.66
54122;BME280;40029;58.708;50.190;2024-03-02T08:16:45;101594.34;;;1.18;73.92
54122;BME280;40029;58.708;50.190;2024-03-02T08:19:16;101605.94;;;0.96;74.65
54122;BME280;40029;58.708;50.190;2024-03-02T08:22:06;101610.19;;;0.94;73.98
54122;BME280;40029;58.708;50.190;2024-03-02T08:24:37;101600.09;;;1.06;73.99
54122;BME280;40029;58.708;50.190;2024-03-02T08:27:09;101599.75;;;1.26;73.71
54122;BME280;40029;58.708;50.190;2024-03-02T08:29:58;101598.59;;;1.14;74.25
54122;BME280;40029;58.708;50.190;2024-03-02T08:32:48;101596.22;;;1.24;74.29
54122;BME280;40029;58.708;50.190;2024-03-02T08:35:19;101589.63;;;1.05;73.66
54122;BME280;40029;58.708;50.190;2024-03-02T08:37:50;101593.13;;;1.05;74.36
54122;BME280;40029;58.708;50.190;2024-03-02T08:40:21;101586.97;;;1.03;73.98
54122;BME280;40029;58.708;50.190;2024-03-02T08:43:11;101585.91;;;0.95;74.59
54122;BME280;40029;58.708;50.190;2024-03-02T08:45:42;101586.16;;;1.04;74.60
54122;BME280;40029;58.708;50.190;2024-03-02T08:48:13;101588.00;;;1.08;74.42
54122;BME280;40029;58.708;50.190;2024-03-02T08:50:44;101592.56;;;1.17;74.08
54122;BME280;40029;58.708;50.190;2024-03-02T08:53:16;101588.56;;;1.30;73.99
54122;BME280;40029;58.708;50.190;2024-03-02T08:55:50;101588.63;;;1.33;73.37
54122;BME280;40029;58.708;50.190;2024-03-02T08:58:21;101588.41;;;1.24;73.69
54122;BME280;40029;58.708;50.190;2024-03-02T09:00:52;101593.63;;;1.24;74.54
54122;BME280;40029;58.708;50.190;2024-03-02T09:03:23;101584.13;;;1.26;74.16
54122;BME280;40029;58.708;50.190;2024-03-02T09:05:55;101592.25;;;1.40;73.39
54122;BME280;40029;58.708;50.190;2024-03-02T09:08:26;101588.91;;;1.45;73.87
54122;BME280;40029;58.708;50.190;2024-03-02T09:10:57;101590.75;;;1.49;73.64
54122;BME280;40029;58.708;50.190;2024-03-02T09:13:28;101588.41;;;1.59;74.27
54122;BME280;40029;58.708;50.190;2024-03-02T09:16:00;101590.06;;;1.55;73.30
54122;BME280;40029;58.708;50.190;2024-03-02T09:18:31;101597.34;;;1.33;73.82
54122;BME280;40029;58.708;50.190;2024-03-02T09:21:02;101591.75;;;1.18;73.80
54122;BME280;40029;58.708;50.190;2024-03-02T09:23:35;101586.19;;;1.06;73.96
54122;BME280;40029;58.708;50.190;2024-03-02T09:26:07;101588.66;;;1.34;74.26
54122;BME280;40029;58.708;50.190;2024-03-02T09:28:38;101591.53;;;1.45;73.66
54122;BME280;40029;58.708;50.190;2024-03-02T09:31:09;101590.75;;;1.49;73.45
54122;BME280;40029;58.708;50.190;2024-03-02T09:33:40;101587.41;;;1.53;72.72
54122;BME280;40029;58.708;50.190;2024-03-02T09:36:20;101582.19;;;1.53;72.94
54122;BME280;40029;58.708;50.190;2024-03-02T09:39:11;101587.88;;;1.73;72.89
54122;BME280;40029;58.708;50.190;2024-03-02T09:41:43;101585.16;;;1.69;72.97
54122;BME280;40029;58.708;50.190;2024-03-02T09:44:15;101582.63;;;1.72;73.12
54122;BME280;40029;58.708;50.190;2024-03-02T09:46:49;101576.59;;;1.74;72.50
54122;BME280;40029;58.708;50.190;2024-03-02T09:49:23;101580.16;;;1.78;73.12
54122;BME280;40029;58.708;50.190;2024-03-02T09:51:55;101581.22;;;1.86;73.09
54122;BME280;40029;58.708;50.190;2024-03-02T09:54:28;101579.56;;;1.91;72.62
54122;BME280;40029;58.708;50.190;2024-03-02T09:57:00;101582.22;;;1.93;72.51
54122;BME280;40029;58.708;50.190;2024-03-02T09:59:32;101579.75;;;1.98;72.82
54122;BME280;40029;58.708;50.190;2024-03-02T10:02:04;101578.94;;;2.02;72.02
54122;BME280;40029;58.708;50.190;2024-03-02T10:04:37;101583.06;;;1.90;72.38
54122;BME280;40029;58.708;50.190;2024-03-02T10:07:27;101580.44;;;1.90;72.37
54122;BME280;40029;58.708;50.190;2024-03-02T10:10:12;101583.19;;;1.97;71.36
54122;BME280;40029;58.708;50.190;2024-03-02T10:12:44;101580.91;;;2.12;71.40
54122;BME280;40029;58.708;50.190;2024-03-02T10:15:24;101577.19;;;2.42;69.59
54122;BME280;40029;58.708;50.190;2024-03-02T10:17:55;101581.16;;;2.24;70.75
54122;BME280;40029;58.708;50.190;2024-03-02T10:20:29;101580.88;;;2.10;71.08
54122;BME280;40029;58.708;50.190;2024-03-02T10:23:11;101570.13;;;1.97;71.05
54122;BME280;40029;58.708;50.190;2024-03-02T10:25:43;101573.09;;;2.13;71.20
54122;BME280;40029;58.708;50.190;2024-03-02T10:28:15;101574.50;;;1.98;71.05
54122;BME280;40029;58.708;50.190;2024-03-02T10:30:47;101572.88;;;2.03;70.84
54122;BME280;40029;58.708;50.190;2024-03-02T10:33:20;101565.03;;;2.03;70.96
54122;BME280;40029;58.708;50.190;2024-03-02T10:35:51;101569.50;;;2.07;71.16
54122;BME280;40029;58.708;50.190;2024-03-02T10:38:23;101581.31;;;1.91;71.73
54122;BME280;40029;58.708;50.190;2024-03-02T10:40:55;101576.34;;;2.02;71.06
54122;BME280;40029;58.708;50.190;2024-03-02T10:43:28;101564.66;;;1.86;71.14
54122;BME280;40029;58.708;50.190;2024-03-02T10:45:59;101572.88;;;2.03;71.29
54122;BME280;40029;58.708;50.190;2024-03-02T10:48:31;101569.47;;;2.05;70.96
54122;BME280;40029;58.708;50.190;2024-03-02T10:51:04;101571.72;;;1.90;70.61
54122;BME280;40029;58.708;50.190;2024-03-02T10:53:55;101569.34;;;2.01;70.78
54122;BME280;40029;58.708;50.190;2024-03-02T10:56:40;101571.78;;;1.93;71.27
54122;BME280;40029;58.708;50.190;2024-03-02T10:59:34;101565.28;;;1.74;71.99
54122;BME280;40029;58.708;50.190;2024-03-02T11:02:06;101566.44;;;1.87;72.06
54122;BME280;40029;58.708;50.190;2024-03-02T11:04:40;101570.41;;;1.71;72.53
54122;BME280;40029;58.708;50.190;2024-03-02T11:07:13;101573.44;;;1.51;73.17
54122;BME280;40029;58.708;50.190;2024-03-02T11:10:03;101570.31;;;1.66;72.03
54122;BME280;40029;58.708;50.190;2024-03-02T11:12:48;101574.19;;;1.84;71.51
54122;BME280;40029;58.708;50.190;2024-03-02T11:15:25;101570.63;;;1.80;72.07
54122;BME280;40029;58.708;50.190;2024-03-02T11:17:57;101575.63;;;1.71;71.90
54122;BME280;40029;58.708;50.190;2024-03-02T11:20:29;101579.16;;;1.73;71.79
54122;BME280;40029;58.708;50.190;2024-03-02T11:23:05;101575.63;;;1.71;72.00
54122;BME280;40029;58.708;50.190;2024-03-02T11:25:37;101573.34;;;1.85;71.80
54122;BME280;40029;58.708;50.190;2024-03-02T11:28:10;101571.81;;;1.95;71.66
54122;BME280;40029;58.708;50.190;2024-03-02T11:33:13;101581.09;;;1.82;72.11
54122;BME280;40029;58.708;50.190;2024-03-02T11:35:45;101574.22;;;1.85;71.79
54122;BME280;40029;58.708;50.190;2024-03-02T11:38:18;101579.53;;;1.90;72.27
54122;BME280;40029;58.708;50.190;2024-03-02T11:40:50;101582.69;;;1.75;72.67
54122;BME280;40029;58.708;50.190;2024-03-02T11:43:22;101575.84;;;1.80;72.38
54122;BME280;40029;58.708;50.190;2024-03-02T11:45:58;101584.31;;;1.71;72.93
54122;BME280;40029;58.708;50.190;2024-03-02T11:48:30;101573.94;;;1.73;72.83
54122;BME280;40029;58.708;50.190;2024-03-02T11:51:01;101580.59;;;1.59;73.67
54122;BME280;40029;58.708;50.190;2024-03-02T11:53:33;101572.19;;;1.72;73.05
54122;BME280;40029;58.708;50.190;2024-03-02T11:56:06;101580.06;;;1.75;73.36
54122;BME280;40029;58.708;50.190;2024-03-02T11:58:40;101581.00;;;1.77;73.16
54122;BME280;40029;58.708;50.190;2024-03-02T12:01:12;101571.41;;;1.76;73.30
54122;BME280;40029;58.708;50.190;2024-03-02T12:03:44;101575.63;;;1.71;72.92
54122;BME280;40029;58.708;50.190;2024-03-02T12:06:16;101577.31;;;1.69;73.53
54122;BME280;40029;58.708;50.190;2024-03-02T12:08:52;101574.75;;;1.70;73.31
54122;BME280;40029;58.708;50.190;2024-03-02T12:11:24;101568.84;;;1.78;73.11
54122;BME280;40029;58.708;50.190;2024-03-02T12:13:55;101569.84;;;1.83;73.12
54122;BME280;40029;58.708;50.190;2024-03-02T12:16:47;101569.75;;;1.43;73.74
54122;BME280;40029;58.708;50.190;2024-03-02T12:19:21;101576.25;;;1.59;74.01
54122;BME280;40029;58.708;50.190;2024-03-02T12:21:53;101578.81;;;1.58;74.40
54122;BME280;40029;58.708;50.190;2024-03-02T12:24:28;101583.88;;;1.51;73.93
54122;BME280;40029;58.708;50.190;2024-03-02T12:27:00;101582.44;;;1.64;74.02
54122;BME280;40029;58.708;50.190;2024-03-02T12:29:32;101582.47;;;1.66;73.67
54122;BME280;40029;58.708;50.190;2024-03-02T12:32:05;101585.72;;;1.56;73.98
54122;BME280;40029;58.708;50.190;2024-03-02T12:34:38;101583.28;;;1.63;73.45
54122;BME280;40029;58.708;50.190;2024-03-02T12:37:12;101588.41;;;1.59;73.79
54122;BME280;40029;58.708;50.190;2024-03-02T12:39:47;101584.16;;;1.64;73.79
54122;BME280;40029;58.708;50.190;2024-03-02T12:42:18;101591.94;;;1.62;73.56
54122;BME280;40029;58.708;50.190;2024-03-02T12:44:51;101590.00;;;1.53;74.18
54122;BME280;40029;58.708;50.190;2024-03-02T12:47:25;101596.06;;;1.52;74.39
54122;BME280;40029;58.708;50.190;2024-03-02T12:49:56;101603.84;;;1.51;74.14
54122;BME280;40029;58.708;50.190;2024-03-02T12:52:28;101607.16;;;1.45;74.88
54122;BME280;40029;58.708;50.190;2024-03-02T12:55:00;101600.22;;;1.44;75.18
54122;BME280;40029;58.708;50.190;2024-03-02T12:57:34;101597.38;;;1.35;75.45
54122;BME280;40029;58.708;50.190;2024-03-02T13:00:24;101597.19;;;1.29;75.06
54122;BME280;40029;58.708;50.190;2024-03-02T13:02:56;101593.69;;;1.27;75.87
54122;BME280;40029;58.708;50.190;2024-03-02T13:05:32;101597.19;;;1.27;75.36
54122;BME280;40029;58.708;50.190;2024-03-02T13:08:05;101596.97;;;1.20;76.46
54122;BME280;40029;58.708;50.190;2024-03-02T13:10:37;101599.34;;;1.10;76.20
54122;BME280;40029;58.708;50.190;2024-03-02T13:13:09;101598.50;;;1.11;76.93
54122;BME280;40029;58.708;50.190;2024-03-02T13:15:40;101590.78;;;1.14;76.09
54122;BME280;40029;58.708;50.190;2024-03-02T13:18:11;101594.09;;;1.09;76.28
54122;BME280;40029;58.708;50.190;2024-03-02T13:20:42;101592.31;;;1.08;77.11
54122;BME280;40029;58.708;50.190;2024-03-02T13:23:33;101589.78;;;1.09;76.89
54122;BME280;40029;58.708;50.190;2024-03-02T13:26:04;101589.53;;;1.00;77.86